East Hampton, NY (11937)

3:20 AM EST on January 17, 2017 (GMT -0500)
East Hampton Village | | Change Station

Elev 33 ft 40.96 °N, 72.20 °W | Updated 6 seconds ago

Overcast
Overcast
39.9 °F
Feels Like 40 °F
N
2.5
Wind Variable Wind from South
Gusts 4.9 mph

Today
High -- | Low -- °F
--% Chance of Precip.
Yesterday
High -- | Low -- °F
Precip. -- in
Pressure 30.23 in
Visibility 10.0 miles
Clouds Overcast 7000 ft
Windchill 40 °F
Dew Point 26 °F
Humidity 57%
Rainfall 0.00 in
Snow Depth Not available.
7:10 AM 4:47 PM
Waning Gibbous, 74% visible
METAR KHTO 170755Z AUTO 26007KT 10SM OVC070 04/M03 A3023 RMK AO2 T00351031
Pressure 30.23 in
Visibility 10.0 miles
Clouds Overcast 7000 ft
Windchill 40 °F
Dew Point 26 °F
Humidity 57%
Rainfall 0.00 in
Snow Depth Not available.
7:10 AM 4:47 PM
Waning Gibbous, 74% visible
METAR KHTO 170755Z AUTO 26007KT 10SM OVC070 04/M03 A3023 RMK AO2 T00351031

Get Your Daily Forecast Email!

Thanks for signing up!

Be on the lookout for a verification email in your inbox.

You'll start receiving the daily forecast at 8 AM.

×

10-Day Weather Forecast

Almanac

Astronomy

Jan. 17, 2017 Rise Set
Actual Time
Civil Twilight
Nautical Twilight
Astronomical Twilight
Moon
Length of Visible Light
Length of Day
Tomorrow will be .
, % of the Moon is Illuminated

Today's Extremes

State Highs State Lows

Community

WunderPhotos

Upload Photos

1,962,540 photos uploaded!

WunderBlog® & News

Nearby

Air Quality

  Air Quality AQ Index Pollutant
Not available.

Snow Depth

Station Depth Elevation

Earthquake Activity

City Distance Mag. Time & Date
Minimum magnitude displayed is 2.5.

Coastal Water Temperatures

Place Temperature

Stations

Nearby Weather Stations

Station Location Temp. Windchill Dew Point Humidity Wind Precip. Elev Updated Type
                   

Watches & Warnings

There are currently no watches in effect.